createdAt,value
2023-05-09T00:01:30.032Z,13.60
2023-05-09T00:03:33.234Z,13.70
2023-05-09T00:05:34.963Z,13.60
2023-05-09T00:07:36.686Z,13.60
2023-05-09T00:09:38.315Z,13.50
2023-05-09T00:11:40.200Z,13.50
2023-05-09T00:13:41.995Z,13.50
2023-05-09T00:15:44.255Z,13.40
2023-05-09T00:17:46.444Z,13.40
2023-05-09T00:19:48.899Z,13.30
2023-05-09T00:21:50.883Z,13.30
2023-05-09T00:23:52.651Z,13.30
2023-05-09T00:25:54.395Z,13.30
2023-05-09T00:27:56.012Z,13.30
2023-05-09T00:29:57.649Z,13.20
2023-05-09T00:31:59.389Z,13.20
2023-05-09T00:34:01.043Z,13.20
2023-05-09T00:36:02.717Z,13.20
2023-05-09T00:38:04.439Z,13.20
2023-05-09T00:40:07.503Z,13.10
2023-05-09T00:42:09.137Z,13.10
2023-05-09T00:44:10.784Z,13.00
2023-05-09T00:46:12.642Z,13.00
2023-05-09T00:48:15.055Z,13.00
2023-05-09T00:50:16.995Z,12.90
2023-05-09T00:52:23.273Z,12.90
2023-05-09T00:54:25.447Z,12.90
2023-05-09T00:56:27.494Z,12.80
2023-05-09T00:58:29.775Z,12.80
2023-05-09T01:00:31.359Z,12.70
2023-05-09T01:02:33.195Z,12.70
2023-05-09T01:04:35.197Z,12.70
2023-05-09T01:06:41.739Z,12.70
2023-05-09T01:08:46.842Z,12.60
2023-05-09T01:10:52.842Z,12.60
2023-05-09T01:12:54.546Z,12.60
2023-05-09T01:15:02.250Z,12.70
2023-05-09T01:17:19.414Z,12.70
2023-05-09T01:19:42.864Z,12.70
2023-05-09T01:21:46.497Z,12.80
2023-05-09T01:24:00.567Z,12.90
2023-05-09T01:26:05.961Z,12.80
2023-05-09T01:28:16.807Z,12.80
2023-05-09T01:30:18.909Z,12.80
2023-05-09T01:32:24.234Z,12.90
2023-05-09T01:34:27.290Z,13.00
2023-05-09T01:36:30.461Z,12.90
2023-05-09T01:38:32.922Z,12.90
2023-05-09T01:40:35.821Z,12.80
2023-05-09T01:42:49.726Z,12.90
2023-05-09T01:44:52.521Z,12.80
2023-05-09T01:46:54.945Z,12.80
2023-05-09T01:48:57.528Z,12.90
2023-05-09T01:50:59.672Z,12.80
2023-05-09T01:53:01.752Z,12.80
2023-05-09T01:55:05.300Z,12.70
2023-05-09T01:57:08.078Z,12.70
2023-05-09T01:59:15.931Z,12.60
2023-05-09T02:01:18.559Z,12.60
2023-05-09T02:03:23.564Z,12.50
2023-05-09T02:05:29.827Z,12.50
2023-05-09T02:07:32.198Z,12.50
2023-05-09T02:09:33.895Z,12.50
2023-05-09T02:11:35.529Z,12.50
2023-05-09T02:13:38.358Z,12.40
2023-05-09T02:15:40.319Z,12.40
2023-05-09T02:17:42.605Z,12.30
2023-05-09T02:19:44.420Z,12.30
2023-05-09T02:21:46.160Z,12.20
2023-05-09T02:23:47.937Z,12.20
2023-05-09T02:25:49.980Z,12.20
2023-05-09T02:27:52.092Z,12.30
2023-05-09T02:29:56.260Z,12.20
2023-05-09T02:32:00.392Z,12.20
2023-05-09T02:34:02.898Z,12.30
2023-05-09T02:36:05.102Z,12.20
2023-05-09T02:38:06.987Z,12.20
2023-05-09T02:40:09.377Z,12.30
2023-05-09T02:42:11.833Z,12.30
2023-05-09T02:44:13.607Z,12.40
2023-05-09T02:46:15.597Z,12.50
2023-05-09T02:48:17.466Z,12.50
2023-05-09T02:50:19.170Z,12.50
2023-05-09T02:52:21.352Z,12.50
2023-05-09T02:54:23.065Z,12.50
2023-05-09T02:56:24.826Z,12.50
2023-05-09T02:58:26.727Z,12.50
2023-05-09T03:00:28.375Z,12.60
2023-05-09T03:02:31.980Z,12.60
2023-05-09T03:04:33.649Z,12.60
2023-05-09T03:06:35.714Z,12.60
2023-05-09T03:08:37.324Z,12.60
2023-05-09T03:10:38.931Z,12.60
2023-05-09T03:12:43.547Z,12.60
2023-05-09T03:14:45.353Z,12.60
2023-05-09T03:16:46.976Z,12.60
2023-05-09T03:18:48.642Z,12.50
2023-05-09T03:20:50.548Z,12.50
2023-05-09T03:22:52.330Z,12.50
2023-05-09T03:24:54.090Z,12.50
2023-05-09T03:26:55.726Z,12.50
2023-05-09T03:28:57.325Z,12.50
2023-05-09T03:30:59.046Z,12.40
2023-05-09T03:33:00.892Z,12.40
2023-05-09T03:35:02.858Z,12.40
2023-05-09T03:37:04.638Z,12.40
2023-05-09T03:39:06.334Z,12.40
2023-05-09T03:41:08.048Z,12.30
2023-05-09T03:43:09.776Z,12.30
2023-05-09T03:45:11.916Z,12.30
2023-05-09T03:47:13.781Z,12.30
2023-05-09T03:49:15.441Z,12.30
2023-05-09T03:51:17.082Z,12.20
2023-05-09T03:53:18.981Z,12.20
2023-05-09T03:55:20.793Z,12.20
2023-05-09T03:57:22.506Z,12.20
2023-05-09T03:59:24.195Z,12.20
2023-05-09T04:01:25.912Z,12.30
2023-05-09T04:03:27.686Z,12.30
2023-05-09T04:05:29.482Z,12.30
2023-05-09T04:07:31.200Z,12.30
2023-05-09T04:09:32.905Z,12.30
2023-05-09T04:11:34.673Z,12.20
2023-05-09T04:13:36.303Z,12.30
2023-05-09T04:15:38.042Z,12.40
2023-05-09T04:17:39.679Z,12.40
2023-05-09T04:19:41.431Z,12.40
2023-05-09T04:21:43.138Z,12.40
2023-05-09T04:23:44.869Z,12.40
2023-05-09T04:25:46.600Z,12.40
2023-05-09T04:27:48.298Z,12.50
2023-05-09T04:29:49.896Z,12.50
2023-05-09T04:31:51.750Z,12.50
2023-05-09T04:33:53.567Z,12.60
2023-05-09T04:35:55.800Z,12.60
2023-05-09T04:37:57.481Z,12.60
2023-05-09T04:39:59.242Z,12.60
2023-05-09T04:42:01.113Z,12.60
2023-05-09T04:44:03.284Z,12.70
2023-05-09T04:46:05.144Z,12.60
2023-05-09T04:48:07.079Z,12.60
2023-05-09T04:50:09.122Z,12.60
2023-05-09T04:52:10.850Z,12.60
2023-05-09T04:54:12.524Z,12.70
2023-05-09T04:56:15.031Z,12.60
2023-05-09T04:58:16.828Z,12.70
2023-05-09T05:00:19.458Z,12.70
2023-05-09T05:02:22.379Z,12.70
2023-05-09T05:04:24.230Z,12.70
2023-05-09T05:06:25.921Z,12.70
2023-05-09T05:08:27.572Z,12.80
2023-05-09T05:10:30.329Z,12.90
2023-05-09T05:12:31.965Z,12.90
2023-05-09T05:14:33.658Z,12.90
2023-05-09T05:16:35.308Z,13.00
2023-05-09T05:18:37.277Z,13.00
2023-05-09T05:20:42.230Z,13.10
2023-05-09T05:22:44.055Z,13.20
2023-05-09T05:24:45.715Z,13.30
2023-05-09T05:26:47.546Z,13.40
2023-05-09T05:28:49.257Z,13.50
2023-05-09T05:30:51.686Z,13.60
2023-05-09T05:32:54.018Z,13.70
2023-05-09T05:35:00.401Z,13.70
2023-05-09T05:37:03.133Z,13.80
2023-05-09T05:39:10.763Z,13.80
2023-05-09T05:41:15.616Z,13.80
2023-05-09T05:43:17.393Z,13.90
2023-05-09T05:45:19.139Z,13.90
2023-05-09T05:47:20.972Z,14.00
2023-05-09T05:49:25.072Z,14.00
2023-05-09T05:51:26.825Z,14.00
2023-05-09T05:53:29.803Z,14.00
2023-05-09T05:55:32.502Z,14.10
2023-05-09T05:57:37.836Z,14.20
2023-05-09T05:59:39.489Z,14.20
2023-05-09T06:01:41.407Z,14.20
2023-05-09T06:03:43.304Z,14.20
2023-05-09T06:05:46.693Z,14.20
2023-05-09T06:07:48.536Z,14.20
2023-05-09T06:09:50.380Z,14.30
2023-05-09T06:11:52.208Z,14.30
2023-05-09T06:13:53.967Z,14.30
2023-05-09T06:16:02.001Z,14.40
2023-05-09T06:18:09.897Z,14.40
2023-05-09T06:20:11.784Z,14.50
2023-05-09T06:22:13.477Z,14.50
2023-05-09T06:24:27.444Z,14.50
2023-05-09T06:26:36.878Z,14.60
2023-05-09T06:28:38.754Z,14.70
2023-05-09T06:30:40.472Z,14.80
2023-05-09T06:32:42.216Z,14.80
2023-05-09T06:34:44.039Z,14.90
2023-05-09T06:36:45.641Z,15.00
2023-05-09T06:38:47.280Z,15.10
2023-05-09T06:40:48.989Z,15.20
2023-05-09T06:42:50.694Z,15.30
2023-05-09T06:44:52.411Z,15.20
2023-05-09T06:46:54.118Z,15.20
2023-05-09T06:48:55.824Z,15.20
2023-05-09T06:50:57.884Z,15.20
2023-05-09T06:52:59.530Z,15.30
2023-05-09T06:55:01.326Z,15.20
2023-05-09T06:57:03.027Z,15.20
2023-05-09T06:59:04.972Z,15.40
2023-05-09T07:01:06.670Z,15.40
2023-05-09T07:03:08.481Z,15.40
2023-05-09T07:05:10.724Z,15.50
2023-05-09T07:07:12.416Z,15.60
2023-05-09T07:09:17.439Z,15.80
2023-05-09T07:11:19.143Z,16.00
2023-05-09T07:13:20.982Z,16.20
2023-05-09T07:15:36.881Z,16.30
2023-05-09T07:17:42.007Z,16.40
2023-05-09T07:19:43.654Z,16.40
2023-05-09T07:21:45.411Z,16.40
2023-05-09T07:23:47.063Z,16.60
2023-05-09T07:25:48.754Z,16.70
2023-05-09T07:27:50.478Z,16.70
2023-05-09T07:29:52.585Z,16.50
2023-05-09T07:31:54.356Z,16.50
2023-05-09T07:33:56.143Z,16.50
2023-05-09T07:36:00.942Z,16.40
2023-05-09T07:38:02.787Z,16.30
2023-05-09T07:40:06.165Z,16.40
2023-05-09T07:42:08.455Z,16.50
2023-05-09T07:44:10.307Z,16.50
2023-05-09T07:46:12.164Z,16.60
2023-05-09T07:48:13.863Z,16.60
2023-05-09T07:50:16.953Z,16.60
2023-05-09T07:52:18.657Z,16.80
2023-05-09T07:54:20.340Z,16.80
2023-05-09T07:56:22.700Z,16.80
2023-05-09T07:58:24.530Z,16.80
2023-05-09T08:00:26.260Z,16.80
2023-05-09T08:02:28.084Z,16.70
2023-05-09T08:04:29.834Z,16.90
2023-05-09T08:06:31.458Z,16.90
2023-05-09T08:08:33.196Z,17.10
2023-05-09T08:10:34.843Z,17.30
2023-05-09T08:12:36.605Z,17.50
2023-05-09T08:14:38.296Z,17.30
2023-05-09T08:16:39.993Z,17.20
2023-05-09T08:18:41.687Z,17.40
2023-05-09T08:20:43.379Z,17.50
2023-05-09T08:22:45.205Z,17.60
2023-05-09T08:24:47.269Z,17.70
2023-05-09T08:26:48.931Z,17.80
2023-05-09T08:28:50.671Z,17.80
2023-05-09T08:30:52.356Z,17.70
2023-05-09T08:32:54.142Z,17.90
2023-05-09T08:34:55.878Z,17.90
2023-05-09T08:36:58.581Z,17.80
2023-05-09T08:39:01.684Z,17.80
2023-05-09T08:41:04.622Z,17.80
2023-05-09T08:43:06.687Z,17.80
2023-05-09T08:45:18.562Z,17.80
2023-05-09T08:47:23.067Z,17.90
2023-05-09T08:49:25.673Z,18.10
2023-05-09T08:51:37.078Z,18.20
2023-05-09T08:53:50.433Z,18.30
2023-05-09T08:55:57.543Z,18.20
2023-05-09T08:58:00.478Z,18.20
2023-05-09T09:00:04.685Z,18.30
2023-05-09T09:02:07.466Z,18.50
2023-05-09T09:04:11.866Z,18.70
2023-05-09T09:06:14.418Z,18.90
2023-05-09T09:08:16.821Z,19.00
2023-05-09T09:10:20.934Z,19.10
2023-05-09T09:12:23.711Z,19.20
2023-05-09T09:14:27.659Z,19.40
2023-05-09T09:16:29.953Z,19.30
2023-05-09T09:18:33.078Z,19.20
2023-05-09T09:20:35.741Z,19.50
2023-05-09T09:22:38.001Z,19.70
2023-05-09T09:24:39.935Z,19.90
2023-05-09T09:26:49.444Z,19.80
2023-05-09T09:28:51.065Z,19.70
2023-05-09T09:30:52.772Z,19.80
2023-05-09T09:32:54.701Z,19.90
2023-05-09T09:35:07.017Z,20.10
2023-05-09T09:37:08.886Z,19.90
2023-05-09T09:39:13.141Z,20.00
2023-05-09T09:41:14.971Z,20.00
2023-05-09T09:43:16.754Z,20.20
2023-05-09T09:45:19.504Z,20.50
2023-05-09T09:47:30.507Z,20.60
2023-05-09T09:49:42.738Z,20.80
2023-05-09T09:51:55.732Z,20.90
2023-05-09T09:54:01.774Z,20.90
2023-05-09T09:56:03.494Z,20.80
2023-05-09T09:58:16.214Z,20.70
2023-05-09T10:00:27.822Z,20.70
2023-05-09T10:02:29.532Z,21.10
2023-05-09T10:04:32.199Z,21.60
2023-05-09T10:06:33.881Z,21.90
2023-05-09T10:08:35.614Z,21.60
2023-05-09T10:10:37.538Z,21.60
2023-05-09T10:12:40.580Z,21.70
2023-05-09T10:14:43.302Z,22.00
2023-05-09T10:16:46.353Z,21.70
2023-05-09T10:18:48.179Z,21.50
2023-05-09T10:20:50.121Z,21.60
2023-05-09T10:22:54.484Z,21.80
2023-05-09T10:25:01.552Z,21.80
2023-05-09T10:27:04.688Z,21.50
2023-05-09T10:29:08.064Z,21.00
2023-05-09T10:31:16.194Z,20.80
2023-05-09T10:33:21.757Z,20.80
2023-05-09T10:35:27.893Z,21.00
2023-05-09T10:37:30.988Z,21.00
2023-05-09T10:39:34.842Z,22.50
2023-05-09T10:41:37.510Z,23.70
2023-05-09T10:43:39.408Z,23.70
2023-05-09T10:45:41.740Z,22.80
2023-05-09T10:47:44.457Z,22.20
2023-05-09T10:49:46.506Z,22.00
2023-05-09T10:51:49.812Z,21.70
2023-05-09T10:53:51.659Z,21.70
2023-05-09T10:55:55.546Z,21.50
2023-05-09T10:58:07.296Z,21.50
2023-05-09T11:00:09.966Z,21.30
2023-05-09T11:02:15.925Z,21.70
2023-05-09T11:04:17.576Z,21.70
2023-05-09T11:06:51.959Z,22.20
2023-05-09T11:08:54.163Z,22.90
2023-05-09T11:10:56.818Z,22.80
2023-05-09T11:12:59.216Z,23.80
2023-05-09T11:15:07.992Z,25.50
2023-05-09T11:17:11.438Z,26.50
2023-05-09T11:19:13.123Z,26.50
2023-05-09T11:21:14.862Z,27.00
2023-05-09T11:23:18.584Z,26.20
2023-05-09T11:25:25.176Z,25.20
2023-05-09T11:27:28.299Z,24.30
2023-05-09T11:29:29.988Z,25.50
2023-05-09T11:31:31.824Z,26.80
2023-05-09T11:33:36.292Z,27.10
2023-05-09T11:35:38.996Z,25.20
2023-05-09T11:38:10.157Z,24.30
2023-05-09T11:40:12.433Z,25.00
2023-05-09T11:42:14.170Z,26.50
2023-05-09T11:44:20.477Z,26.40
2023-05-09T11:46:22.995Z,25.00
2023-05-09T11:48:24.765Z,25.10
2023-05-09T11:50:26.713Z,25.90
2023-05-09T11:52:31.966Z,26.60
2023-05-09T11:54:33.777Z,27.10
2023-05-09T11:56:36.214Z,27.40
2023-05-09T11:58:38.618Z,28.10
2023-05-09T12:00:46.889Z,26.50
2023-05-09T12:02:49.220Z,26.00
2023-05-09T12:04:51.036Z,25.70
2023-05-09T12:06:52.850Z,26.20
2023-05-09T12:08:55.278Z,27.00
2023-05-09T12:11:08.249Z,27.20
2023-05-09T12:13:10.368Z,27.20
2023-05-09T12:15:13.599Z,26.10
2023-05-09T12:17:15.834Z,25.60
2023-05-09T12:19:18.570Z,26.00
2023-05-09T12:21:20.686Z,25.90
2023-05-09T12:23:24.970Z,26.20
2023-05-09T12:25:26.952Z,26.50
2023-05-09T12:27:29.292Z,26.50
2023-05-09T12:29:31.152Z,27.00
2023-05-09T12:31:32.967Z,26.10
2023-05-09T12:33:36.261Z,26.70
2023-05-09T12:35:39.509Z,27.00
2023-05-09T12:37:54.334Z,27.60
2023-05-09T12:40:06.898Z,27.70
2023-05-09T12:42:12.050Z,27.90
2023-05-09T12:44:24.511Z,27.50
2023-05-09T12:46:26.286Z,27.40
2023-05-09T12:48:28.767Z,27.50
2023-05-09T12:50:36.517Z,27.40
2023-05-09T12:52:50.189Z,27.40
2023-05-09T12:55:04.284Z,27.40
2023-05-09T12:57:06.331Z,27.20
2023-05-09T12:59:10.833Z,27.00
2023-05-09T13:01:14.263Z,27.20
2023-05-09T13:03:26.120Z,27.20
2023-05-09T13:05:27.806Z,26.70
2023-05-09T13:07:29.484Z,26.90
2023-05-09T13:09:31.576Z,26.80
2023-05-09T13:11:33.367Z,26.80
2023-05-09T13:13:35.186Z,27.10
2023-05-09T13:15:37.123Z,27.10
2023-05-09T13:17:38.792Z,27.50
2023-05-09T13:19:40.721Z,26.90
2023-05-09T13:21:42.397Z,27.00
2023-05-09T13:23:45.513Z,26.70
2023-05-09T13:25:47.341Z,26.70
2023-05-09T13:27:49.245Z,26.10
2023-05-09T13:29:50.957Z,26.10
2023-05-09T13:31:52.619Z,25.90
2023-05-09T13:33:54.407Z,25.70
2023-05-09T13:35:56.112Z,26.10
2023-05-09T13:37:59.243Z,26.70
2023-05-09T13:40:01.032Z,26.90
2023-05-09T13:42:05.762Z,26.90
2023-05-09T13:44:08.060Z,26.80
2023-05-09T13:46:09.884Z,26.70
2023-05-09T13:48:11.798Z,26.50
2023-05-09T13:50:13.576Z,25.50
2023-05-09T13:52:16.152Z,25.20
2023-05-09T13:54:19.686Z,25.00
2023-05-09T13:56:21.365Z,25.00
2023-05-09T13:58:22.988Z,24.80
2023-05-09T14:00:26.513Z,24.50
2023-05-09T14:02:28.523Z,24.40
2023-05-09T14:04:33.877Z,24.50
2023-05-09T14:06:36.135Z,24.40
2023-05-09T14:08:39.666Z,23.90
2023-05-09T14:10:41.513Z,23.70
2023-05-09T14:12:47.372Z,23.40
2023-05-09T14:14:49.551Z,23.10
2023-05-09T14:16:51.736Z,22.90
2023-05-09T14:18:53.757Z,22.80
2023-05-09T14:20:55.746Z,22.70
2023-05-09T14:23:00.736Z,22.50
2023-05-09T14:25:05.746Z,22.40
2023-05-09T14:27:10.719Z,22.20
2023-05-09T14:29:12.505Z,22.00
2023-05-09T14:31:14.181Z,21.80
2023-05-09T14:33:15.980Z,21.80
2023-05-09T14:35:18.538Z,19.50
2023-05-09T14:37:20.295Z,17.80
2023-05-09T14:39:22.120Z,16.40
2023-05-09T14:41:23.836Z,16.00
2023-05-09T14:43:25.730Z,16.70
2023-05-09T14:45:27.530Z,17.00
2023-05-09T14:47:29.456Z,16.90
2023-05-09T14:49:31.494Z,16.80
2023-05-09T14:51:34.072Z,17.10
2023-05-09T14:53:39.845Z,17.10
2023-05-09T14:55:41.865Z,17.40
2023-05-09T14:57:43.666Z,17.20
2023-05-09T14:59:48.054Z,17.40
2023-05-09T15:01:51.343Z,17.50
2023-05-09T15:03:53.040Z,17.60
2023-05-09T15:05:54.940Z,18.00
2023-05-09T15:07:56.635Z,17.90
2023-05-09T15:09:58.467Z,18.10
2023-05-09T15:12:00.229Z,18.20
2023-05-09T15:14:02.008Z,17.50
2023-05-09T15:16:03.839Z,17.30
2023-05-09T15:18:05.708Z,17.30
2023-05-09T15:20:07.568Z,17.30
2023-05-09T15:22:09.268Z,17.90
2023-05-09T15:24:11.129Z,18.50
2023-05-09T15:26:12.981Z,18.90
2023-05-09T15:28:14.780Z,18.80
2023-05-09T15:30:16.558Z,18.80
2023-05-09T15:32:18.351Z,18.80
2023-05-09T15:34:22.279Z,18.50
2023-05-09T15:36:24.028Z,18.30
2023-05-09T15:38:28.883Z,18.60
2023-05-09T15:40:30.840Z,18.80
2023-05-09T15:42:32.460Z,18.90
2023-05-09T15:44:34.253Z,18.80
2023-05-09T15:46:36.037Z,18.80
2023-05-09T15:48:37.814Z,18.90
2023-05-09T15:50:40.027Z,18.90
2023-05-09T15:52:41.782Z,18.50
2023-05-09T15:54:45.162Z,18.70
2023-05-09T15:56:48.254Z,18.70
2023-05-09T15:58:50.704Z,18.70
2023-05-09T16:00:52.389Z,18.60
2023-05-09T16:02:54.132Z,18.50
2023-05-09T16:04:55.950Z,18.30
2023-05-09T16:06:59.978Z,18.40
2023-05-09T16:09:03.721Z,18.50
2023-05-09T16:11:07.238Z,18.50
2023-05-09T16:13:09.221Z,18.50
2023-05-09T16:15:11.261Z,18.40
2023-05-09T16:17:13.700Z,18.40
2023-05-09T16:19:15.395Z,18.40
2023-05-09T16:21:22.436Z,18.50
2023-05-09T16:23:25.183Z,18.40
2023-05-09T16:25:27.353Z,18.30
2023-05-09T16:27:29.088Z,18.40
2023-05-09T16:29:30.823Z,18.20
2023-05-09T16:31:35.321Z,18.10
2023-05-09T16:33:37.385Z,18.10
2023-05-09T16:35:39.718Z,18.10
2023-05-09T16:37:46.461Z,18.00
2023-05-09T16:39:48.738Z,18.00
2023-05-09T16:41:50.492Z,18.00
2023-05-09T16:43:52.985Z,17.80
2023-05-09T16:45:54.729Z,17.60
2023-05-09T16:47:58.471Z,17.70
2023-05-09T16:50:01.327Z,17.60
2023-05-09T16:52:02.936Z,17.50
2023-05-09T16:54:04.575Z,17.50
2023-05-09T16:56:07.484Z,17.50
2023-05-09T16:58:09.107Z,17.50
2023-05-09T17:00:11.025Z,17.50
2023-05-09T17:02:20.645Z,17.50
2023-05-09T17:04:24.302Z,17.50
2023-05-09T17:06:26.258Z,17.50
2023-05-09T17:08:27.900Z,17.40
2023-05-09T17:10:29.608Z,17.40
2023-05-09T17:12:31.347Z,17.20
2023-05-09T17:14:32.946Z,16.80
2023-05-09T17:16:50.043Z,16.70
2023-05-09T17:18:56.550Z,16.50
2023-05-09T17:20:58.314Z,16.30
2023-05-09T17:23:00.012Z,16.60
2023-05-09T17:25:01.816Z,16.60
2023-05-09T17:27:04.279Z,16.50
2023-05-09T17:29:05.927Z,16.60
2023-05-09T17:31:08.176Z,16.60
2023-05-09T17:33:10.556Z,16.60
2023-05-09T17:35:22.386Z,16.60
2023-05-09T17:37:55.780Z,16.50
2023-05-09T17:39:59.062Z,16.60
2023-05-09T17:42:17.112Z,16.60
2023-05-09T17:44:19.691Z,16.60
2023-05-09T17:46:21.432Z,16.60
2023-05-09T17:48:23.261Z,16.60
2023-05-09T17:50:24.964Z,16.60
2023-05-09T17:52:26.921Z,16.60
2023-05-09T17:54:28.725Z,16.40
2023-05-09T17:56:30.588Z,16.40
2023-05-09T17:58:32.169Z,16.40
2023-05-09T18:00:33.993Z,16.00
2023-05-09T18:02:35.816Z,16.00
2023-05-09T18:04:45.118Z,16.10
2023-05-09T18:06:49.141Z,16.10
2023-05-09T18:08:56.141Z,15.80
2023-05-09T18:10:58.973Z,15.60
2023-05-09T18:13:00.682Z,15.70
2023-05-09T18:15:02.647Z,15.50
2023-05-09T18:17:14.940Z,15.60
2023-05-09T18:19:29.758Z,15.70
2023-05-09T18:21:33.822Z,15.80
2023-05-09T18:23:35.468Z,15.80
2023-05-09T18:25:45.828Z,15.90
2023-05-09T18:28:02.567Z,15.90
2023-05-09T18:30:12.450Z,15.90
2023-05-09T18:32:22.732Z,15.90
2023-05-09T18:34:24.990Z,15.70
2023-05-09T18:36:30.663Z,15.70
2023-05-09T18:38:35.503Z,15.80
2023-05-09T18:40:37.362Z,15.70
2023-05-09T18:42:39.013Z,15.70
2023-05-09T18:44:40.872Z,15.80
2023-05-09T18:47:01.066Z,15.70
2023-05-09T18:49:06.905Z,15.60
2023-05-09T18:51:11.674Z,15.60
2023-05-09T18:53:13.712Z,15.60
2023-05-09T18:55:15.456Z,15.60
2023-05-09T18:57:17.089Z,15.60
2023-05-09T18:59:25.460Z,15.60
2023-05-09T19:01:28.363Z,15.60
2023-05-09T19:03:31.576Z,15.60
2023-05-09T19:05:40.269Z,15.60
2023-05-09T19:07:51.786Z,15.60
2023-05-09T19:09:54.088Z,15.60
2023-05-09T19:11:56.471Z,15.60
2023-05-09T19:13:58.192Z,15.60
2023-05-09T19:15:59.968Z,15.60
2023-05-09T19:18:01.990Z,15.60
2023-05-09T19:20:03.964Z,15.50
2023-05-09T19:22:05.633Z,15.50
2023-05-09T19:24:07.605Z,15.60
2023-05-09T19:26:09.836Z,15.60
2023-05-09T19:28:14.424Z,15.60
2023-05-09T19:30:16.414Z,15.60
2023-05-09T19:32:42.766Z,15.70
2023-05-09T19:34:47.276Z,15.70
2023-05-09T19:37:11.311Z,15.60
2023-05-09T19:39:32.266Z,15.50
2023-05-09T19:41:50.799Z,15.50
2023-05-09T19:43:56.608Z,15.50
2023-05-09T19:46:01.193Z,15.60
2023-05-09T19:48:04.502Z,15.50
2023-05-09T19:50:06.638Z,15.50
2023-05-09T19:52:08.476Z,15.50
2023-05-09T19:54:10.141Z,15.50
2023-05-09T19:56:16.093Z,15.40
2023-05-09T19:58:19.663Z,15.40
2023-05-09T20:00:22.388Z,15.60
2023-05-09T20:02:26.209Z,15.50
2023-05-09T20:04:34.804Z,15.50
2023-05-09T20:06:39.427Z,15.50
2023-05-09T20:08:42.897Z,15.50
2023-05-09T20:10:45.879Z,15.40
2023-05-09T20:12:48.262Z,15.40
2023-05-09T20:14:50.951Z,15.40
2023-05-09T20:16:52.754Z,15.40
2023-05-09T20:18:55.091Z,15.40
2023-05-09T20:20:56.894Z,15.40
2023-05-09T20:22:58.792Z,15.30
2023-05-09T20:25:00.458Z,15.30
2023-05-09T20:27:04.905Z,15.20
2023-05-09T20:29:06.602Z,15.20
2023-05-09T20:31:08.397Z,15.20
2023-05-09T20:33:10.036Z,15.10
2023-05-09T20:35:11.859Z,15.10
2023-05-09T20:37:13.556Z,15.10
2023-05-09T20:39:17.788Z,15.10
2023-05-09T20:41:19.425Z,15.10
2023-05-09T20:43:21.095Z,15.10
2023-05-09T20:45:22.848Z,15.00
2023-05-09T20:47:24.747Z,15.00
2023-05-09T20:49:27.213Z,15.00
2023-05-09T20:51:28.904Z,15.10
2023-05-09T20:53:32.362Z,15.00
2023-05-09T20:55:34.032Z,15.00
2023-05-09T20:57:35.751Z,14.90
2023-05-09T20:59:37.411Z,15.00
2023-05-09T21:01:40.239Z,15.00
2023-05-09T21:03:42.062Z,15.00
2023-05-09T21:05:43.844Z,14.90
2023-05-09T21:07:45.626Z,15.00
2023-05-09T21:09:47.801Z,14.90
2023-05-09T21:11:49.621Z,14.90
2023-05-09T21:13:51.447Z,14.90
2023-05-09T21:15:53.224Z,14.90
2023-05-09T21:17:55.051Z,14.90
2023-05-09T21:19:56.763Z,14.90
2023-05-09T21:21:58.551Z,14.80
2023-05-09T21:24:03.158Z,14.90
2023-05-09T21:26:05.002Z,14.90
2023-05-09T21:28:06.718Z,14.90
2023-05-09T21:30:08.600Z,14.90
2023-05-09T21:32:10.410Z,14.90
2023-05-09T21:34:12.017Z,14.90
2023-05-09T21:36:13.902Z,14.90
2023-05-09T21:38:15.605Z,14.90
2023-05-09T21:40:17.551Z,14.80
2023-05-09T21:42:19.350Z,14.80
2023-05-09T21:44:20.995Z,14.80
2023-05-09T21:46:22.735Z,14.80
2023-05-09T21:48:24.517Z,14.80
2023-05-09T21:50:26.202Z,14.80
2023-05-09T21:52:27.789Z,14.80
2023-05-09T21:54:29.604Z,14.80
2023-05-09T21:56:31.263Z,14.80
2023-05-09T21:58:32.945Z,14.80
2023-05-09T22:00:34.968Z,14.80
2023-05-09T22:02:38.646Z,14.80
2023-05-09T22:04:40.389Z,14.80
2023-05-09T22:06:42.610Z,14.70
2023-05-09T22:08:44.345Z,14.80
2023-05-09T22:10:46.033Z,14.80
2023-05-09T22:12:48.244Z,14.80
2023-05-09T22:14:56.456Z,14.70
2023-05-09T22:16:58.892Z,14.70
2023-05-09T22:19:00.537Z,14.70
2023-05-09T22:21:02.103Z,14.70
2023-05-09T22:23:03.831Z,14.70
2023-05-09T22:25:05.932Z,14.60
2023-05-09T22:27:08.141Z,14.70
2023-05-09T22:29:09.807Z,14.70
2023-05-09T22:31:11.479Z,14.70
2023-05-09T22:33:13.256Z,14.70
2023-05-09T22:35:15.060Z,14.70
2023-05-09T22:37:16.759Z,14.70
2023-05-09T22:39:18.424Z,14.60
2023-05-09T22:41:20.276Z,14.60
2023-05-09T22:43:22.401Z,14.60
2023-05-09T22:45:24.097Z,14.60
2023-05-09T22:47:25.780Z,14.60
2023-05-09T22:49:27.873Z,14.60
2023-05-09T22:51:29.849Z,14.60
2023-05-09T22:53:32.816Z,14.60
2023-05-09T22:55:34.873Z,14.50
2023-05-09T22:57:36.865Z,14.50
2023-05-09T22:59:38.604Z,14.60
2023-05-09T23:01:46.800Z,14.60
2023-05-09T23:03:48.458Z,14.60
2023-05-09T23:05:51.027Z,14.60
2023-05-09T23:07:52.721Z,14.60
2023-05-09T23:09:54.300Z,14.60
2023-05-09T23:11:56.053Z,14.60
2023-05-09T23:13:57.669Z,14.60
2023-05-09T23:15:59.322Z,14.60
2023-05-09T23:18:01.029Z,14.50
2023-05-09T23:20:04.100Z,14.60
2023-05-09T23:22:05.831Z,14.60
2023-05-09T23:24:07.709Z,14.60
2023-05-09T23:26:10.190Z,14.60
2023-05-09T23:28:12.528Z,14.60
2023-05-09T23:30:14.403Z,14.60
2023-05-09T23:32:16.246Z,14.60
2023-05-09T23:34:18.038Z,14.60
2023-05-09T23:36:19.759Z,14.50
2023-05-09T23:38:21.378Z,14.50
2023-05-09T23:40:23.120Z,14.50
2023-05-09T23:42:24.769Z,14.60
2023-05-09T23:44:26.475Z,14.60
2023-05-09T23:46:28.248Z,14.50
2023-05-09T23:48:30.183Z,14.40
2023-05-09T23:50:31.999Z,14.30
2023-05-09T23:52:33.575Z,14.30
2023-05-09T23:54:35.457Z,14.40
2023-05-09T23:56:37.097Z,14.50
2023-05-09T23:58:38.748Z,14.40
